createdAt,value
2018-08-11T00:02:46.371Z,1.20
2018-08-11T00:07:39.734Z,1.10
2018-08-11T00:12:33.140Z,1.15
2018-08-11T00:17:26.511Z,1.20
2018-08-11T00:22:19.996Z,0.98
2018-08-11T00:27:13.383Z,1.00
2018-08-11T00:32:06.900Z,1.32
2018-08-11T00:37:00.313Z,1.07
2018-08-11T00:41:53.625Z,0.85
2018-08-11T00:46:47.083Z,1.05
2018-08-11T00:51:40.463Z,1.27
2018-08-11T00:56:33.858Z,1.40
2018-08-11T01:01:27.816Z,1.30
2018-08-11T01:06:21.127Z,0.93
2018-08-11T01:11:14.574Z,1.05
2018-08-11T01:16:08.095Z,1.12
2018-08-11T01:21:01.459Z,1.20
2018-08-11T01:25:54.857Z,1.20
2018-08-11T01:30:48.228Z,1.00
2018-08-11T01:35:41.646Z,1.32
2018-08-11T01:40:35.067Z,1.30
2018-08-11T01:45:28.447Z,1.95
2018-08-11T01:50:21.865Z,1.75
2018-08-11T01:55:16.591Z,2.22
2018-08-11T02:00:12.046Z,1.10
2018-08-11T02:05:06.012Z,0.70
2018-08-11T02:09:59.410Z,0.80
2018-08-11T02:14:52.828Z,0.90
2018-08-11T02:19:46.246Z,1.07
2018-08-11T02:24:39.726Z,0.70
2018-08-11T02:29:33.077Z,0.68
2018-08-11T02:34:26.511Z,0.80
2018-08-11T02:39:19.906Z,0.70
2018-08-11T02:44:13.334Z,0.68
2018-08-11T02:49:07.758Z,0.62
2018-08-11T02:54:01.769Z,0.70
2018-08-11T02:58:55.158Z,0.82
2018-08-11T03:03:48.488Z,0.57
2018-08-11T03:08:42.154Z,0.60
2018-08-11T03:13:35.504Z,0.60
2018-08-11T03:18:28.883Z,0.80
2018-08-11T03:23:22.242Z,0.72
2018-08-11T03:28:15.594Z,0.70
2018-08-11T03:33:09.054Z,0.80
2018-08-11T03:38:03.146Z,0.80
2018-08-11T03:42:57.676Z,0.55
2018-08-11T03:47:51.225Z,0.70
2018-08-11T03:52:45.575Z,0.85
2018-08-11T03:57:39.338Z,0.80
2018-08-11T04:02:34.196Z,0.70
2018-08-11T04:07:27.625Z,0.85
2018-08-11T04:12:21.201Z,1.00
2018-08-11T04:17:14.548Z,1.15
2018-08-11T04:22:09.857Z,1.20
2018-08-11T04:27:03.210Z,1.10
2018-08-11T04:31:56.554Z,1.27
2018-08-11T04:36:51.107Z,1.25
2018-08-11T04:41:45.151Z,1.30
2018-08-11T04:46:40.781Z,1.10
2018-08-11T04:51:35.281Z,1.40
2018-08-11T04:56:30.085Z,1.15
2018-08-11T05:01:24.170Z,1.27
2018-08-11T05:06:17.530Z,1.55
2018-08-11T05:11:10.836Z,1.60
2018-08-11T05:16:04.293Z,1.50
2018-08-11T05:20:57.605Z,1.80
2018-08-11T05:25:50.974Z,1.50
2018-08-11T05:30:44.514Z,1.77
2018-08-11T05:35:38.563Z,1.95
2018-08-11T05:40:32.621Z,2.10
2018-08-11T05:45:26.368Z,1.70
2018-08-11T05:50:19.729Z,1.50
2018-08-11T05:55:13.147Z,1.32
2018-08-11T06:00:08.508Z,1.27
2018-08-11T06:05:01.873Z,1.95
2018-08-11T06:09:55.163Z,1.35
2018-08-11T06:14:48.544Z,1.52
2018-08-11T06:19:41.965Z,1.95
2018-08-11T06:24:35.332Z,1.52
2018-08-11T06:29:28.699Z,1.80
2018-08-11T06:34:22.074Z,1.65
2018-08-11T06:39:15.415Z,1.70
2018-08-11T06:44:09.240Z,1.35
2018-08-11T06:49:02.630Z,1.67
2018-08-11T06:53:55.982Z,1.52
2018-08-11T06:58:49.320Z,1.62
2018-08-11T07:03:42.704Z,1.47
2018-08-11T07:08:36.052Z,1.52
2018-08-11T07:13:29.402Z,1.60
2018-08-11T07:18:22.724Z,1.30
2018-08-11T07:23:16.089Z,1.65
2018-08-11T07:28:09.458Z,0.90
2018-08-11T07:33:02.833Z,1.10
2018-08-11T07:37:56.152Z,1.22
2018-08-11T07:42:56.504Z,1.37
2018-08-11T07:47:49.898Z,0.85
2018-08-11T07:52:43.326Z,1.27
2018-08-11T07:57:36.729Z,1.62
2018-08-11T08:02:30.067Z,0.98
2018-08-11T08:07:23.434Z,2.37
2018-08-11T08:12:16.785Z,0.70
2018-08-11T08:17:10.161Z,0.80
2018-08-11T08:22:03.487Z,0.90
2018-08-11T08:26:56.899Z,0.70
2018-08-11T08:31:50.301Z,0.70
2018-08-11T08:36:43.668Z,0.72
2018-08-11T08:41:37.113Z,0.90
2018-08-11T08:46:30.478Z,0.98
2018-08-11T08:51:23.832Z,0.88
2018-08-11T08:56:17.220Z,1.00
2018-08-11T09:01:10.589Z,1.02
2018-08-11T09:06:03.960Z,0.90
2018-08-11T09:10:57.986Z,0.78
2018-08-11T09:15:51.346Z,0.82
2018-08-11T09:20:44.766Z,0.80
2018-08-11T09:25:38.099Z,0.80
2018-08-11T09:30:31.480Z,0.80
2018-08-11T09:35:24.831Z,0.80
2018-08-11T09:40:18.188Z,0.70
2018-08-11T09:45:11.568Z,0.80
2018-08-11T09:50:05.018Z,0.80
2018-08-11T09:54:58.336Z,1.12
2018-08-11T09:59:51.711Z,1.30
2018-08-11T10:04:45.058Z,0.78
2018-08-11T10:09:38.512Z,1.00
2018-08-11T10:14:40.966Z,2.20
2018-08-11T10:19:44.194Z,1.00
2018-08-11T10:24:46.342Z,1.55
2018-08-11T10:29:39.915Z,0.90
2018-08-11T10:34:37.590Z,1.42
2018-08-11T10:39:39.991Z,1.10
2018-08-11T10:44:43.615Z,0.90
2018-08-11T10:49:47.353Z,1.02
2018-08-11T10:54:52.359Z,2.50
2018-08-11T10:59:55.666Z,1.90
2018-08-11T11:04:56.645Z,1.60
2018-08-11T11:09:57.331Z,0.80
2018-08-11T11:15:05.950Z,0.80
2018-08-11T11:20:11.388Z,0.88
2018-08-11T11:25:14.705Z,1.02
2018-08-11T11:30:15.243Z,0.80
2018-08-11T11:35:18.471Z,1.32
2018-08-11T11:40:17.567Z,0.80
2018-08-11T11:45:19.442Z,2.65
2018-08-11T11:50:22.728Z,1.95
2018-08-11T11:55:22.287Z,1.87
2018-08-11T12:00:24.534Z,1.30
2018-08-11T12:05:23.298Z,0.90
2018-08-11T12:10:24.995Z,0.90
2018-08-11T12:15:28.116Z,0.90
2018-08-11T12:20:29.832Z,0.90
2018-08-11T12:25:30.390Z,0.75
2018-08-11T12:30:24.025Z,0.70
2018-08-11T12:35:25.422Z,0.80
2018-08-11T12:40:19.772Z,0.72
2018-08-11T12:45:20.329Z,0.78
2018-08-11T12:50:20.841Z,1.10
2018-08-11T12:55:22.103Z,0.70
2018-08-11T13:00:23.030Z,1.07
2018-08-11T13:05:24.292Z,0.90
2018-08-11T13:10:26.769Z,0.90
2018-08-11T13:15:28.040Z,0.85
2018-08-11T13:20:26.223Z,0.93
2018-08-11T13:25:27.425Z,0.93
2018-08-11T13:30:21.160Z,0.80
2018-08-11T13:35:20.379Z,0.90
2018-08-11T13:40:13.952Z,0.93
2018-08-11T13:45:13.472Z,0.90
2018-08-11T13:50:13.929Z,0.75
2018-08-11T13:55:15.614Z,1.30
2018-08-11T14:00:18.210Z,1.05
2018-08-11T14:05:19.329Z,0.70
2018-08-11T14:10:20.031Z,0.85
2018-08-11T14:15:18.318Z,0.88
2018-08-11T14:20:18.636Z,0.82
2018-08-11T14:25:12.140Z,2.95
2018-08-11T14:30:15.019Z,1.42
2018-08-11T14:35:16.228Z,1.17
2018-08-11T14:40:17.916Z,1.05
2018-08-11T14:45:18.755Z,1.30
2018-08-11T14:50:24.276Z,2.10
2018-08-11T14:55:26.394Z,0.80
2018-08-11T15:00:27.383Z,1.07
2018-08-11T15:05:27.541Z,1.10
2018-08-11T15:10:21.349Z,0.98
2018-08-11T15:15:21.991Z,1.32
2018-08-11T15:20:21.638Z,0.88
2018-08-11T15:25:22.882Z,1.30
2018-08-11T15:30:23.253Z,1.10
2018-08-11T15:35:23.369Z,1.00
2018-08-11T15:40:23.789Z,1.00
2018-08-11T15:45:24.813Z,1.10
2018-08-11T15:50:20.848Z,0.90
2018-08-11T15:55:22.121Z,1.15
2018-08-11T16:00:23.245Z,1.35
2018-08-11T16:05:24.151Z,1.42
2018-08-11T16:10:23.515Z,1.80
2018-08-11T16:15:24.613Z,1.65
2018-08-11T16:20:18.251Z,2.20
2018-08-11T16:25:20.777Z,1.50
2018-08-11T16:30:18.401Z,1.17
2018-08-11T16:35:12.109Z,2.10
2018-08-11T16:40:13.509Z,1.55
2018-08-11T16:45:13.321Z,1.82
2018-08-11T16:50:13.038Z,1.82
2018-08-11T16:55:06.557Z,1.45
2018-08-11T16:59:59.985Z,1.45
2018-08-11T17:04:53.404Z,1.57
2018-08-11T17:09:46.834Z,1.17
2018-08-11T17:14:40.350Z,2.27
2018-08-11T17:19:33.708Z,2.10
2018-08-11T17:24:27.109Z,1.80
2018-08-11T17:29:20.452Z,1.17
2018-08-11T17:34:13.830Z,2.70
2018-08-11T17:39:09.388Z,1.77
2018-08-11T17:44:02.842Z,2.00
2018-08-11T17:48:56.280Z,1.10
2018-08-11T17:53:49.569Z,1.57
2018-08-11T17:58:42.962Z,1.42
2018-08-11T18:03:36.316Z,1.27
2018-08-11T18:08:29.644Z,1.32
2018-08-11T18:13:23.026Z,2.60
2018-08-11T18:18:16.365Z,1.10
2018-08-11T18:23:09.726Z,1.62
2018-08-11T18:28:03.187Z,1.67
2018-08-11T18:32:56.537Z,1.70
2018-08-11T18:37:49.922Z,1.67
2018-08-11T18:42:43.305Z,2.07
2018-08-11T18:47:36.647Z,2.08
2018-08-11T18:52:29.965Z,1.47
2018-08-11T18:57:23.337Z,1.40
2018-08-11T19:02:16.716Z,2.40
2018-08-11T19:07:10.162Z,1.50
2018-08-11T19:12:03.644Z,1.60
2018-08-11T19:16:56.998Z,1.60
2018-08-11T19:21:50.381Z,1.50
2018-08-11T19:26:43.728Z,2.02
2018-08-11T19:31:37.070Z,2.58
2018-08-11T19:36:30.507Z,2.15
2018-08-11T19:41:23.840Z,1.90
2018-08-11T19:46:17.367Z,2.30
2018-08-11T19:51:10.659Z,1.70
2018-08-11T19:56:04.278Z,1.60
2018-08-11T20:00:57.598Z,1.82
2018-08-11T20:05:51.049Z,2.58
2018-08-11T20:10:44.443Z,2.10
2018-08-11T20:15:37.844Z,2.10
2018-08-11T20:20:31.289Z,2.35
2018-08-11T20:25:24.854Z,1.80
2018-08-11T20:30:18.134Z,2.40
2018-08-11T20:35:11.612Z,2.47
2018-08-11T20:40:05.494Z,2.05
2018-08-11T20:44:58.935Z,2.27
2018-08-11T20:49:52.310Z,1.87
2018-08-11T20:54:45.810Z,2.22
2018-08-11T20:59:39.175Z,2.20
2018-08-11T21:04:32.605Z,2.85
2018-08-11T21:09:25.985Z,2.65
2018-08-11T21:14:19.448Z,3.50
2018-08-11T21:19:12.829Z,3.00
2018-08-11T21:24:06.230Z,2.25
2018-08-11T21:28:59.636Z,2.37
2018-08-11T21:33:53.060Z,1.98
2018-08-11T21:38:46.504Z,2.40
2018-08-11T21:43:39.920Z,1.75
2018-08-11T21:48:33.484Z,1.90
2018-08-11T21:53:26.879Z,1.90
2018-08-11T21:58:20.310Z,1.90
2018-08-11T22:03:13.720Z,2.17
2018-08-11T22:08:07.176Z,2.35
2018-08-11T22:13:00.711Z,2.30
2018-08-11T22:17:54.261Z,2.50
2018-08-11T22:22:47.712Z,2.62
2018-08-11T22:27:41.753Z,2.37
2018-08-11T22:32:35.542Z,2.90
2018-08-11T22:37:28.934Z,3.05
2018-08-11T22:42:22.298Z,3.35
2018-08-11T22:47:15.760Z,2.52
2018-08-11T22:52:09.121Z,2.85
2018-08-11T22:57:02.819Z,2.77
2018-08-11T23:01:56.238Z,3.00
2018-08-11T23:06:49.590Z,2.85
2018-08-11T23:11:43.004Z,2.98
2018-08-11T23:16:36.359Z,2.87
2018-08-11T23:21:29.749Z,2.75
2018-08-11T23:26:23.159Z,2.83
2018-08-11T23:31:16.559Z,2.90
2018-08-11T23:36:09.961Z,3.00
2018-08-11T23:41:03.444Z,2.70
2018-08-11T23:45:56.853Z,2.60
2018-08-11T23:50:50.408Z,2.77
2018-08-11T23:55:43.876Z,3.00
